РПИ Магадан

Сквоки, район применения ICAO EUR-J:

Анадырь 1620-1627

Магадан  6501-6577

Лого Магадан
Руководитель РПИ

Sergey Balandin*

Инструкторы РПИ
Ivan Aksenenko (Instructor)
Sergey Balandin (Senior Instructor)
Входит в состав
ЗЦ Хабаровск

Диспетчеры РПИ

Диспетчер Рейтинг Допуски *
Konstantin Gordeev Controller UHMM_CTR
Sergey Balandin Senior Instructor UHMM_CTR

Аэропорты РПИ

ICAO Город Название Погода
UHMA Анадырь Угольный UHMA 161800Z 36005MPS 320V070 3200 BR NSC M28/M31 Q1034 R01/60D TEMPO 1500 BR RMK TDZ R01/36005G09MPS END R01/34007G08MPS QFE771/1029
UHMM Магадан Магадан UHMM 161900Z 13001MPS 9999 NSC M33/M36 Q1025 RMK QFE754 R28/08003MPS
UHMP Певек Певек
UHMD Провидения Бухта Провидения
UHEK Купол Купол